WZZ249 EPKT-EPMO
Flight info
| Callsign | WZZ249 |
|---|---|
| Flight time | 0h 32m |
| Altitude | 23000 |
| Route | NAVUR N744 OVBOR/N0380F220 N133 NUBLI |
| Aircraft | A20N/M-SDE2E3FGHIRWXY/LB1 |
Departure
| Time | 2026-04-14 21:01 |
|---|---|
| Airport | Katowice Wojciech Korfanty International Airport (EPKT) |
Arrival
| Time | 2026-04-14 21:34 |
|---|---|
| Airport | Warsaw Modlin Airport (EPMO) |
| Time | Latitude | Longitude | Altitude | Speed | Heading |
|---|---|---|---|---|---|
| 2026-04-14 20:45 | 50.47182 | 19.07212 | 998 ft | 0 kts | 180° |
| 2026-04-14 20:52 | 50.47183 | 19.07212 | 998 ft | 0 kts | 180° |
| 2026-04-14 20:52 | 50.47188 | 19.07212 | 1001 ft | 1 kts | 180° |
| 2026-04-14 20:53 | 50.47196 | 19.07212 | 1000 ft | 1 kts | 180° |
| 2026-04-14 20:53 | 50.47204 | 19.07212 | 1002 ft | 1 kts | 181° |
| 2026-04-14 20:53 | 50.47212 | 19.07212 | 1000 ft | 1 kts | 168° |
| 2026-04-14 20:53 | 50.47221 | 19.07208 | 1000 ft | 2 kts | 149° |
| 2026-04-14 20:54 | 50.47232 | 19.07194 | 998 ft | 2 kts | 122° |
| 2026-04-14 20:54 | 50.47238 | 19.07175 | 998 ft | 0 kts | 95° |
| 2026-04-14 20:55 | 50.47237 | 19.07186 | 998 ft | 3 kts | 95° |
| 2026-04-14 20:55 | 50.47235 | 19.07254 | 998 ft | 9 kts | 92° |
| 2026-04-14 20:55 | 50.47234 | 19.07285 | 1001 ft | 0 kts | 92° |
| 2026-04-14 20:55 | 50.47234 | 19.07308 | 998 ft | 5 kts | 91° |
| 2026-04-14 20:56 | 50.47236 | 19.07401 | 998 ft | 10 kts | 72° |
| 2026-04-14 20:56 | 50.47265 | 19.07440 | 998 ft | 0 kts | 31° |
| 2026-04-14 20:56 | 50.47268 | 19.07440 | 998 ft | 2 kts | 15° |
| 2026-04-14 20:57 | 50.47302 | 19.07443 | 998 ft | 8 kts | 3° |
| 2026-04-14 20:57 | 50.47381 | 19.07445 | 998 ft | 14 kts | 359° |
| 2026-04-14 20:57 | 50.47425 | 19.07330 | 1000 ft | 14 kts | 275° |
| 2026-04-14 20:57 | 50.47428 | 19.07180 | 998 ft | 14 kts | 271° |
| 2026-04-14 20:58 | 50.47426 | 19.07033 | 998 ft | 13 kts | 269° |
| 2026-04-14 20:58 | 50.47424 | 19.06893 | 1001 ft | 13 kts | 270° |
| 2026-04-14 20:58 | 50.47424 | 19.06756 | 1002 ft | 13 kts | 270° |
| 2026-04-14 20:58 | 50.47426 | 19.06601 | 998 ft | 16 kts | 270° |
| 2026-04-14 20:59 | 50.47426 | 19.06387 | 995 ft | 23 kts | 269° |
| 2026-04-14 20:59 | 50.47426 | 19.06115 | 993 ft | 24 kts | 272° |
| 2026-04-14 20:59 | 50.47461 | 19.05949 | 991 ft | 15 kts | 309° |
| 2026-04-14 20:59 | 50.47477 | 19.05935 | 994 ft | 0 kts | 354° |
| 2026-04-14 21:00 | 50.47481 | 19.05938 | 993 ft | 4 kts | 15° |
| 2026-04-14 21:00 | 50.47547 | 19.05972 | 993 ft | 12 kts | 17° |
| 2026-04-14 21:00 | 50.47599 | 19.06054 | 995 ft | 11 kts | 75° |
| 2026-04-14 21:00 | 50.47603 | 19.06174 | 995 ft | 22 kts | 92° |
| 2026-04-14 21:01 | 50.47601 | 19.06944 | 999 ft | 114 kts | 91° |
| 2026-04-14 21:01 | 50.47594 | 19.08547 | 1107 ft | 174 kts | 90° |
| 2026-04-14 21:01 | 50.47583 | 19.10540 | 1430 ft | 177 kts | 90° |
| 2026-04-14 21:01 | 50.47562 | 19.12415 | 1661 ft | 170 kts | 91° |
| 2026-04-14 21:02 | 50.47551 | 19.14377 | 1963 ft | 200 kts | 91° |
| 2026-04-14 21:02 | 50.47558 | 19.16710 | 2184 ft | 227 kts | 91° |
| 2026-04-14 21:02 | 50.47566 | 19.19255 | 2416 ft | 233 kts | 90° |
| 2026-04-14 21:02 | 50.47962 | 19.21739 | 2735 ft | 243 kts | 60° |
| 2026-04-14 21:03 | 50.49185 | 19.23583 | 3727 ft | 245 kts | 30° |
| 2026-04-14 21:03 | 50.50686 | 19.24928 | 4691 ft | 261 kts | 29° |
| 2026-04-14 21:03 | 50.52308 | 19.26394 | 5611 ft | 273 kts | 29° |
| 2026-04-14 21:03 | 50.53977 | 19.27907 | 6699 ft | 279 kts | 28° |
| 2026-04-14 21:04 | 50.55652 | 19.29426 | 7751 ft | 283 kts | 28° |
| 2026-04-14 21:04 | 50.57391 | 19.31002 | 8882 ft | 286 kts | 28° |
| 2026-04-14 21:04 | 50.59058 | 19.32781 | 9973 ft | 292 kts | 38° |
| 2026-04-14 21:04 | 50.60627 | 19.34834 | 10810 ft | 305 kts | 39° |
| 2026-04-14 21:05 | 50.62312 | 19.37080 | 11275 ft | 329 kts | 39° |
| 2026-04-14 21:05 | 50.64118 | 19.39498 | 11800 ft | 347 kts | 39° |
| 2026-04-14 21:05 | 50.65956 | 19.41956 | 12697 ft | 352 kts | 39° |
| 2026-04-14 21:05 | 50.67849 | 19.44485 | 13640 ft | 358 kts | 39° |
| 2026-04-14 21:06 | 50.69772 | 19.47052 | 14497 ft | 363 kts | 39° |
| 2026-04-14 21:06 | 50.71688 | 19.49611 | 15298 ft | 368 kts | 39° |
| 2026-04-14 21:06 | 50.73671 | 19.52260 | 16092 ft | 373 kts | 39° |
| 2026-04-14 21:06 | 50.75678 | 19.54943 | 16898 ft | 379 kts | 39° |
| 2026-04-14 21:07 | 50.77784 | 19.57424 | 17671 ft | 382 kts | 27° |
| 2026-04-14 21:07 | 50.80287 | 19.58863 | 18442 ft | 384 kts | 8° |
| 2026-04-14 21:07 | 50.82923 | 19.59097 | 19143 ft | 384 kts | 356° |
| 2026-04-14 21:07 | 50.85616 | 19.58904 | 19879 ft | 387 kts | 354° |
| 2026-04-14 21:08 | 50.88320 | 19.58648 | 20606 ft | 390 kts | 354° |
| 2026-04-14 21:08 | 50.91034 | 19.58409 | 21315 ft | 394 kts | 354° |
| 2026-04-14 21:08 | 50.93774 | 19.58199 | 22010 ft | 397 kts | 354° |
| 2026-04-14 21:08 | 50.96567 | 19.58007 | 22716 ft | 401 kts | 355° |
| 2026-04-14 21:09 | 50.99390 | 19.57826 | 23113 ft | 405 kts | 355° |
| 2026-04-14 21:09 | 51.02181 | 19.57652 | 23203 ft | 406 kts | 355° |
| 2026-04-14 21:09 | 51.05006 | 19.57478 | 23208 ft | 405 kts | 355° |
| 2026-04-14 21:09 | 51.07828 | 19.57303 | 23205 ft | 405 kts | 355° |
| 2026-04-14 21:10 | 51.10620 | 19.57129 | 23208 ft | 405 kts | 355° |
| 2026-04-14 21:10 | 51.13450 | 19.56951 | 23206 ft | 405 kts | 355° |
| 2026-04-14 21:10 | 51.16248 | 19.56776 | 23209 ft | 405 kts | 355° |
| 2026-04-14 21:10 | 51.19085 | 19.56597 | 23212 ft | 406 kts | 355° |
| 2026-04-14 21:11 | 51.21918 | 19.56418 | 23210 ft | 405 kts | 355° |
| 2026-04-14 21:11 | 51.24707 | 19.56242 | 23210 ft | 406 kts | 355° |
| 2026-04-14 21:11 | 51.27535 | 19.56063 | 23207 ft | 406 kts | 354° |
| 2026-04-14 21:11 | 51.30363 | 19.55884 | 23210 ft | 406 kts | 355° |
| 2026-04-14 21:12 | 51.33203 | 19.55704 | 23212 ft | 406 kts | 354° |
| 2026-04-14 21:12 | 51.35996 | 19.55527 | 23210 ft | 406 kts | 355° |
| 2026-04-14 21:12 | 51.38844 | 19.55345 | 23210 ft | 406 kts | 355° |
| 2026-04-14 21:12 | 51.41631 | 19.55168 | 23206 ft | 406 kts | 354° |
| 2026-04-14 21:13 | 51.44461 | 19.54988 | 23204 ft | 406 kts | 354° |
| 2026-04-14 21:13 | 51.47303 | 19.54806 | 23201 ft | 406 kts | 354° |
| 2026-04-14 21:13 | 51.50102 | 19.54627 | 23202 ft | 406 kts | 354° |
| 2026-04-14 21:14 | 51.55772 | 19.54264 | 23196 ft | 406 kts | 354° |
| 2026-04-14 21:14 | 51.58563 | 19.54085 | 23166 ft | 404 kts | 355° |
| 2026-04-14 21:14 | 51.61348 | 19.53908 | 23084 ft | 394 kts | 354° |
| 2026-04-14 21:14 | 51.64049 | 19.53738 | 22950 ft | 382 kts | 354° |
| 2026-04-14 21:15 | 51.66656 | 19.53573 | 22811 ft | 368 kts | 354° |
| 2026-04-14 21:15 | 51.69156 | 19.53414 | 22676 ft | 354 kts | 354° |
| 2026-04-14 21:15 | 51.71579 | 19.53259 | 22553 ft | 341 kts | 354° |
| 2026-04-14 21:15 | 51.73895 | 19.53109 | 22437 ft | 329 kts | 354° |
| 2026-04-14 21:16 | 51.76151 | 19.52963 | 22327 ft | 317 kts | 354° |
| 2026-04-14 21:16 | 51.78326 | 19.52822 | 22126 ft | 307 kts | 354° |
| 2026-04-14 21:16 | 51.80431 | 19.52682 | 21645 ft | 306 kts | 354° |
| 2026-04-14 21:16 | 51.82559 | 19.52540 | 21154 ft | 304 kts | 354° |
| 2026-04-14 21:17 | 51.84651 | 19.52401 | 20672 ft | 303 kts | 354° |
| 2026-04-14 21:17 | 51.86758 | 19.52263 | 20228 ft | 301 kts | 354° |
| 2026-04-14 21:17 | 51.88848 | 19.52127 | 19772 ft | 299 kts | 354° |
| 2026-04-14 21:17 | 51.90902 | 19.51993 | 19329 ft | 297 kts | 355° |
| 2026-04-14 21:18 | 51.92978 | 19.51857 | 18889 ft | 296 kts | 355° |
| 2026-04-14 21:18 | 51.95027 | 19.52197 | 18425 ft | 298 kts | 16° |
| 2026-04-14 21:18 | 51.96984 | 19.53322 | 17946 ft | 297 kts | 18° |
| 2026-04-14 21:18 | 51.98893 | 19.54464 | 17494 ft | 294 kts | 18° |
| 2026-04-14 21:19 | 52.00818 | 19.55618 | 17045 ft | 292 kts | 18° |
| 2026-04-14 21:19 | 52.02695 | 19.56738 | 16601 ft | 290 kts | 18° |
| 2026-04-14 21:19 | 52.04596 | 19.57868 | 16156 ft | 287 kts | 18° |
| 2026-04-14 21:19 | 52.06468 | 19.58979 | 15728 ft | 285 kts | 18° |
| 2026-04-14 21:20 | 52.08310 | 19.60071 | 15314 ft | 283 kts | 18° |
| 2026-04-14 21:20 | 52.10159 | 19.61170 | 14873 ft | 281 kts | 19° |
| 2026-04-14 21:20 | 52.11819 | 19.62839 | 14438 ft | 282 kts | 45° |
| 2026-04-14 21:20 | 52.13109 | 19.65249 | 14020 ft | 281 kts | 49° |
| 2026-04-14 21:21 | 52.14334 | 19.67673 | 13574 ft | 279 kts | 50° |
| 2026-04-14 21:21 | 52.15563 | 19.70118 | 13135 ft | 276 kts | 50° |
| 2026-04-14 21:21 | 52.16784 | 19.72535 | 12698 ft | 274 kts | 49° |
| 2026-04-14 21:21 | 52.17985 | 19.74896 | 12275 ft | 272 kts | 49° |
| 2026-04-14 21:22 | 52.19189 | 19.77257 | 11856 ft | 270 kts | 49° |
| 2026-04-14 21:22 | 52.20384 | 19.79598 | 11444 ft | 268 kts | 49° |
| 2026-04-14 21:22 | 52.21574 | 19.81930 | 11035 ft | 266 kts | 49° |
| 2026-04-14 21:22 | 52.22751 | 19.84237 | 10630 ft | 264 kts | 49° |
| 2026-04-14 21:23 | 52.23924 | 19.86539 | 10240 ft | 262 kts | 49° |
| 2026-04-14 21:23 | 52.25088 | 19.88824 | 9821 ft | 260 kts | 49° |
| 2026-04-14 21:23 | 52.26245 | 19.91097 | 9393 ft | 259 kts | 50° |
| 2026-04-14 21:23 | 52.27379 | 19.93328 | 8978 ft | 257 kts | 50° |
| 2026-04-14 21:24 | 52.28520 | 19.95573 | 8566 ft | 255 kts | 50° |
| 2026-04-14 21:24 | 52.29645 | 19.97790 | 8164 ft | 254 kts | 50° |
| 2026-04-14 21:24 | 52.30775 | 20.00019 | 7768 ft | 252 kts | 50° |
| 2026-04-14 21:24 | 52.31896 | 20.02231 | 7372 ft | 251 kts | 50° |
| 2026-04-14 21:25 | 52.32993 | 20.04398 | 7013 ft | 249 kts | 50° |
| 2026-04-14 21:25 | 52.34103 | 20.06593 | 6642 ft | 247 kts | 51° |
| 2026-04-14 21:25 | 52.35188 | 20.08741 | 6262 ft | 246 kts | 51° |
| 2026-04-14 21:25 | 52.35904 | 20.10159 | 6082 ft | 242 kts | 51° |
| 2026-04-14 21:26 | 52.36955 | 20.12241 | 5968 ft | 229 kts | 51° |
| 2026-04-14 21:26 | 52.37946 | 20.14208 | 5865 ft | 218 kts | 51° |
| 2026-04-14 21:26 | 52.38887 | 20.16078 | 5776 ft | 207 kts | 51° |
| 2026-04-14 21:26 | 52.39777 | 20.17847 | 5611 ft | 201 kts | 52° |
| 2026-04-14 21:27 | 52.40609 | 20.19680 | 5350 ft | 199 kts | 65° |
| 2026-04-14 21:27 | 52.40984 | 20.21814 | 5189 ft | 190 kts | 85° |
| 2026-04-14 21:27 | 52.41159 | 20.23886 | 5100 ft | 180 kts | 84° |
| 2026-04-14 21:27 | 52.41351 | 20.25886 | 4929 ft | 175 kts | 84° |
| 2026-04-14 21:28 | 52.41541 | 20.27787 | 4759 ft | 167 kts | 84° |
| 2026-04-14 21:28 | 52.41750 | 20.29685 | 4369 ft | 171 kts | 82° |
| 2026-04-14 21:28 | 52.41972 | 20.31628 | 3952 ft | 175 kts | 83° |
| 2026-04-14 21:28 | 52.42169 | 20.33583 | 3612 ft | 168 kts | 85° |
| 2026-04-14 21:29 | 52.42339 | 20.35371 | 3436 ft | 152 kts | 86° |
| 2026-04-14 21:29 | 52.42495 | 20.37045 | 3420 ft | 150 kts | 86° |
| 2026-04-14 21:29 | 52.42649 | 20.38703 | 3414 ft | 148 kts | 86° |
| 2026-04-14 21:29 | 52.42806 | 20.40384 | 3215 ft | 148 kts | 86° |
| 2026-04-14 21:30 | 52.42961 | 20.42045 | 3008 ft | 147 kts | 86° |
| 2026-04-14 21:30 | 52.43115 | 20.43683 | 2808 ft | 146 kts | 86° |
| 2026-04-14 21:30 | 52.43269 | 20.45339 | 2598 ft | 146 kts | 86° |
| 2026-04-14 21:30 | 52.43422 | 20.46971 | 2407 ft | 145 kts | 86° |
| 2026-04-14 21:31 | 52.43571 | 20.48547 | 2208 ft | 134 kts | 86° |
| 2026-04-14 21:31 | 52.43713 | 20.50084 | 2024 ft | 136 kts | 86° |
| 2026-04-14 21:31 | 52.43854 | 20.51591 | 1840 ft | 134 kts | 86° |
| 2026-04-14 21:31 | 52.43995 | 20.53103 | 1658 ft | 133 kts | 86° |
| 2026-04-14 21:32 | 52.44133 | 20.54583 | 1475 ft | 132 kts | 86° |
| 2026-04-14 21:32 | 52.44272 | 20.56067 | 1288 ft | 131 kts | 85° |
| 2026-04-14 21:32 | 52.44409 | 20.57532 | 1104 ft | 128 kts | 84° |
| 2026-04-14 21:32 | 52.44543 | 20.58960 | 927 ft | 126 kts | 83° |
| 2026-04-14 21:33 | 52.44668 | 20.60388 | 725 ft | 127 kts | 83° |
| 2026-04-14 21:33 | 52.44797 | 20.61790 | 514 ft | 124 kts | 80° |
| 2026-04-14 21:33 | 52.44935 | 20.63243 | 417 ft | 130 kts | 81° |
| 2026-04-14 21:33 | 52.45073 | 20.64663 | 336 ft | 112 kts | 81° |
| 2026-04-14 21:34 | 52.45150 | 20.65468 | 339 ft | 51 kts | 81° |
| 2026-04-14 21:34 | 52.45187 | 20.65912 | 337 ft | 20 kts | 94° |
| 2026-04-14 21:34 | 52.45087 | 20.66034 | 335 ft | 17 kts | 161° |
| 2026-04-14 21:34 | 52.45066 | 20.66045 | 336 ft | 0 kts | 160° |
| 2026-04-14 21:35 | 52.45066 | 20.66046 | 336 ft | 1 kts | 160° |
| 2026-04-14 21:35 | 52.45032 | 20.66066 | 336 ft | 11 kts | 160° |
| 2026-04-14 21:35 | 52.44928 | 20.66125 | 336 ft | 19 kts | 162° |
| 2026-04-14 21:35 | 52.44864 | 20.66062 | 337 ft | 7 kts | 264° |
| 2026-04-14 21:36 | 52.44853 | 20.65936 | 338 ft | 17 kts | 261° |
| 2026-04-14 21:36 | 52.44829 | 20.65684 | 337 ft | 27 kts | 262° |
| 2026-04-14 21:36 | 52.44800 | 20.65354 | 336 ft | 31 kts | 261° |
| 2026-04-14 21:36 | 52.44769 | 20.65027 | 336 ft | 21 kts | 261° |
| 2026-04-14 21:37 | 52.44727 | 20.64950 | 337 ft | 10 kts | 208° |